Terminal Aerodrome Forecast
Issued by NWS

Home | Current Version | Previous Version | Text Only | Print | Product List | Glossary On
Versions: 1 2 3 4 5 6 7 8 9 10 11 12 13 14 15
439
FTUS42 KTAE 252339
TAFDHN
TAF
KDHN 252339Z 2600/2624 30005KT P6SM BKN200
     FM261100 34003KT 5SM BR SCT008 BKN020
     FM261500 36005KT P6SM SCT020 BKN050=

USA.gov is the U.S. government's official web portal to all federal, state and local government web resources and services.